sensor_id;sensor_type;location;lat;lon;timestamp;P1;durP1;ratioP1;P2;durP2;ratioP2
5650;SDS011;40241;52.684;9.758;2024-02-04T00:01:24;2.00;;;1.90;;
5650;SDS011;40241;52.684;9.758;2024-02-04T00:03:50;2.57;;;2.00;;
5650;SDS011;40241;52.684;9.758;2024-02-04T00:06:15;3.70;;;2.43;;
5650;SDS011;40241;52.684;9.758;2024-02-04T00:08:41;5.50;;;2.20;;
5650;SDS011;40241;52.684;9.758;2024-02-04T00:11:06;5.10;;;2.57;;
5650;SDS011;40241;52.684;9.758;2024-02-04T00:13:33;4.63;;;2.30;;
5650;SDS011;40241;52.684;9.758;2024-02-04T00:15:59;4.10;;;2.00;;
5650;SDS011;40241;52.684;9.758;2024-02-04T00:18:24;2.20;;;1.63;;
5650;SDS011;40241;52.684;9.758;2024-02-04T00:20:50;2.73;;;2.37;;
5650;SDS011;40241;52.684;9.758;2024-02-04T00:23:15;4.33;;;2.53;;
5650;SDS011;40241;52.684;9.758;2024-02-04T00:25:41;2.97;;;2.77;;
5650;SDS011;40241;52.684;9.758;2024-02-04T00:28:06;3.73;;;2.23;;
5650;SDS011;40241;52.684;9.758;2024-02-04T00:30:32;4.30;;;3.03;;
5650;SDS011;40241;52.684;9.758;2024-02-04T00:32:57;5.40;;;2.67;;
5650;SDS011;40241;52.684;9.758;2024-02-04T00:35:27;4.57;;;3.00;;
5650;SDS011;40241;52.684;9.758;2024-02-04T00:37:53;8.87;;;3.40;;
5650;SDS011;40241;52.684;9.758;2024-02-04T00:40:18;5.80;;;2.80;;
5650;SDS011;40241;52.684;9.758;2024-02-04T00:42:44;3.33;;;2.40;;
5650;SDS011;40241;52.684;9.758;2024-02-04T00:45:10;7.93;;;2.63;;
5650;SDS011;40241;52.684;9.758;2024-02-04T00:47:35;4.73;;;2.60;;
5650;SDS011;40241;52.684;9.758;2024-02-04T00:50:01;5.33;;;2.73;;
5650;SDS011;40241;52.684;9.758;2024-02-04T00:52:26;4.37;;;2.70;;
5650;SDS011;40241;52.684;9.758;2024-02-04T00:54:51;5.97;;;2.70;;
5650;SDS011;40241;52.684;9.758;2024-02-04T00:57:16;3.60;;;2.87;;
5650;SDS011;40241;52.684;9.758;2024-02-04T00:59:42;3.43;;;2.37;;
5650;SDS011;40241;52.684;9.758;2024-02-04T01:02:07;4.93;;;2.50;;
5650;SDS011;40241;52.684;9.758;2024-02-04T01:04:32;4.23;;;2.83;;
5650;SDS011;40241;52.684;9.758;2024-02-04T01:06:58;4.00;;;2.87;;
5650;SDS011;40241;52.684;9.758;2024-02-04T01:09:23;8.27;;;3.03;;
5650;SDS011;40241;52.684;9.758;2024-02-04T01:11:48;3.10;;;2.90;;
5650;SDS011;40241;52.684;9.758;2024-02-04T01:14:14;8.17;;;3.27;;
5650;SDS011;40241;52.684;9.758;2024-02-04T01:16:39;4.60;;;3.67;;
5650;SDS011;40241;52.684;9.758;2024-02-04T01:19:04;7.13;;;3.30;;
5650;SDS011;40241;52.684;9.758;2024-02-04T01:21:30;6.40;;;3.47;;
5650;SDS011;40241;52.684;9.758;2024-02-04T01:23:55;4.47;;;3.80;;
5650;SDS011;40241;52.684;9.758;2024-02-04T01:26:20;6.50;;;3.87;;
5650;SDS011;40241;52.684;9.758;2024-02-04T01:28:46;5.13;;;3.97;;
5650;SDS011;40241;52.684;9.758;2024-02-04T01:31:11;6.63;;;3.73;;
5650;SDS011;40241;52.684;9.758;2024-02-04T01:33:37;7.77;;;3.60;;
5650;SDS011;40241;52.684;9.758;2024-02-04T01:36:02;6.70;;;4.07;;
5650;SDS011;40241;52.684;9.758;2024-02-04T01:38:28;4.93;;;3.40;;
5650;SDS011;40241;52.684;9.758;2024-02-04T01:40:53;5.67;;;3.93;;
5650;SDS011;40241;52.684;9.758;2024-02-04T01:43:19;4.47;;;3.60;;
5650;SDS011;40241;52.684;9.758;2024-02-04T01:45:46;5.73;;;4.00;;
5650;SDS011;40241;52.684;9.758;2024-02-04T01:48:12;4.90;;;3.67;;
5650;SDS011;40241;52.684;9.758;2024-02-04T01:50:40;5.53;;;3.80;;
5650;SDS011;40241;52.684;9.758;2024-02-04T01:53:06;4.60;;;4.00;;
5650;SDS011;40241;52.684;9.758;2024-02-04T01:55:32;5.33;;;4.10;;
5650;SDS011;40241;52.684;9.758;2024-02-04T01:57:57;10.33;;;4.10;;
5650;SDS011;40241;52.684;9.758;2024-02-04T02:00:23;6.60;;;3.90;;
5650;SDS011;40241;52.684;9.758;2024-02-04T02:02:48;9.50;;;4.37;;
5650;SDS011;40241;52.684;9.758;2024-02-04T02:05:14;4.43;;;4.00;;
5650;SDS011;40241;52.684;9.758;2024-02-04T02:07:40;6.27;;;4.07;;
5650;SDS011;40241;52.684;9.758;2024-02-04T02:10:06;4.83;;;4.37;;
5650;SDS011;40241;52.684;9.758;2024-02-04T02:12:47;9.23;;;5.27;;
5650;SDS011;40241;52.684;9.758;2024-02-04T02:15:18;7.40;;;5.20;;
5650;SDS011;40241;52.684;9.758;2024-02-04T02:17:50;12.10;;;5.37;;
5650;SDS011;40241;52.684;9.758;2024-02-04T02:20:21;8.63;;;4.87;;
5650;SDS011;40241;52.684;9.758;2024-02-04T02:22:55;8.20;;;4.20;;
5650;SDS011;40241;52.684;9.758;2024-02-04T02:25:28;6.23;;;4.40;;
5650;SDS011;40241;52.684;9.758;2024-02-04T02:27:55;7.60;;;4.77;;
5650;SDS011;40241;52.684;9.758;2024-02-04T02:30:21;7.93;;;5.10;;
5650;SDS011;40241;52.684;9.758;2024-02-04T02:32:46;9.23;;;5.27;;
5650;SDS011;40241;52.684;9.758;2024-02-04T02:35:17;10.80;;;5.60;;
5650;SDS011;40241;52.684;9.758;2024-02-04T02:37:47;7.60;;;5.50;;
5650;SDS011;40241;52.684;9.758;2024-02-04T02:42:55;10.10;;;5.60;;
5650;SDS011;40241;52.684;9.758;2024-02-04T02:45:22;8.43;;;4.77;;
5650;SDS011;40241;52.684;9.758;2024-02-04T02:47:50;8.33;;;6.03;;
5650;SDS011;40241;52.684;9.758;2024-02-04T02:50:16;6.50;;;5.50;;
5650;SDS011;40241;52.684;9.758;2024-02-04T02:52:42;6.80;;;5.40;;
5650;SDS011;40241;52.684;9.758;2024-02-04T02:55:07;12.83;;;5.80;;
5650;SDS011;40241;52.684;9.758;2024-02-04T02:57:33;8.53;;;5.50;;
5650;SDS011;40241;52.684;9.758;2024-02-04T02:59:58;10.23;;;6.20;;
5650;SDS011;40241;52.684;9.758;2024-02-04T03:02:23;8.83;;;6.47;;
5650;SDS011;40241;52.684;9.758;2024-02-04T03:04:49;6.20;;;5.27;;
5650;SDS011;40241;52.684;9.758;2024-02-04T03:07:14;7.40;;;6.30;;
5650;SDS011;40241;52.684;9.758;2024-02-04T03:09:39;10.23;;;6.40;;
5650;SDS011;40241;52.684;9.758;2024-02-04T03:12:05;8.80;;;6.67;;
5650;SDS011;40241;52.684;9.758;2024-02-04T03:14:30;11.23;;;7.07;;
5650;SDS011;40241;52.684;9.758;2024-02-04T03:16:56;7.50;;;6.00;;
5650;SDS011;40241;52.684;9.758;2024-02-04T03:19:21;10.33;;;7.13;;
5650;SDS011;40241;52.684;9.758;2024-02-04T03:21:47;8.27;;;6.43;;
5650;SDS011;40241;52.684;9.758;2024-02-04T03:24:12;9.80;;;6.73;;
5650;SDS011;40241;52.684;9.758;2024-02-04T03:26:38;12.53;;;6.83;;
5650;SDS011;40241;52.684;9.758;2024-02-04T03:29:03;10.70;;;5.83;;
5650;SDS011;40241;52.684;9.758;2024-02-04T03:31:29;7.83;;;6.40;;
5650;SDS011;40241;52.684;9.758;2024-02-04T03:33:55;8.50;;;5.63;;
5650;SDS011;40241;52.684;9.758;2024-02-04T03:36:22;7.03;;;6.10;;
5650;SDS011;40241;52.684;9.758;2024-02-04T03:38:48;10.07;;;6.67;;
5650;SDS011;40241;52.684;9.758;2024-02-04T03:41:14;12.07;;;6.73;;
5650;SDS011;40241;52.684;9.758;2024-02-04T03:43:40;7.70;;;6.20;;
5650;SDS011;40241;52.684;9.758;2024-02-04T03:46:05;8.07;;;5.60;;
5650;SDS011;40241;52.684;9.758;2024-02-04T03:48:30;9.90;;;6.57;;
5650;SDS011;40241;52.684;9.758;2024-02-04T03:50:55;11.60;;;7.17;;
5650;SDS011;40241;52.684;9.758;2024-02-04T03:53:21;8.73;;;6.53;;
5650;SDS011;40241;52.684;9.758;2024-02-04T03:55:48;8.63;;;6.17;;
5650;SDS011;40241;52.684;9.758;2024-02-04T03:58:14;10.27;;;6.40;;
5650;SDS011;40241;52.684;9.758;2024-02-04T04:00:39;9.40;;;5.90;;
5650;SDS011;40241;52.684;9.758;2024-02-04T04:03:05;8.20;;;5.83;;
5650;SDS011;40241;52.684;9.758;2024-02-04T04:05:30;6.93;;;4.80;;
5650;SDS011;40241;52.684;9.758;2024-02-04T04:07:55;9.07;;;5.23;;
5650;SDS011;40241;52.684;9.758;2024-02-04T04:10:21;8.90;;;5.07;;
5650;SDS011;40241;52.684;9.758;2024-02-04T04:12:46;8.27;;;5.60;;
5650;SDS011;40241;52.684;9.758;2024-02-04T04:15:11;7.13;;;4.57;;
5650;SDS011;40241;52.684;9.758;2024-02-04T04:17:37;8.10;;;4.97;;
5650;SDS011;40241;52.684;9.758;2024-02-04T04:20:03;7.50;;;5.40;;
5650;SDS011;40241;52.684;9.758;2024-02-04T04:22:29;6.43;;;4.03;;
5650;SDS011;40241;52.684;9.758;2024-02-04T04:24:55;8.90;;;4.60;;
5650;SDS011;40241;52.684;9.758;2024-02-04T04:27:20;6.73;;;4.10;;
5650;SDS011;40241;52.684;9.758;2024-02-04T04:29:45;10.20;;;4.80;;
5650;SDS011;40241;52.684;9.758;2024-02-04T04:32:11;8.27;;;4.30;;
5650;SDS011;40241;52.684;9.758;2024-02-04T04:34:36;5.67;;;3.80;;
5650;SDS011;40241;52.684;9.758;2024-02-04T04:37:01;4.97;;;3.30;;
5650;SDS011;40241;52.684;9.758;2024-02-04T04:39:27;5.73;;;4.00;;
5650;SDS011;40241;52.684;9.758;2024-02-04T04:41:52;6.27;;;3.60;;
5650;SDS011;40241;52.684;9.758;2024-02-04T04:44:17;7.87;;;3.47;;
5650;SDS011;40241;52.684;9.758;2024-02-04T04:46:42;4.20;;;3.27;;
5650;SDS011;40241;52.684;9.758;2024-02-04T04:49:09;3.17;;;2.80;;
5650;SDS011;40241;52.684;9.758;2024-02-04T04:51:34;5.33;;;2.83;;
5650;SDS011;40241;52.684;9.758;2024-02-04T04:54:00;3.90;;;2.50;;
5650;SDS011;40241;52.684;9.758;2024-02-04T04:56:25;6.17;;;2.90;;
5650;SDS011;40241;52.684;9.758;2024-02-04T04:58:50;4.90;;;2.53;;
5650;SDS011;40241;52.684;9.758;2024-02-04T05:01:16;5.63;;;2.47;;
5650;SDS011;40241;52.684;9.758;2024-02-04T05:03:42;6.10;;;2.37;;
5650;SDS011;40241;52.684;9.758;2024-02-04T05:06:07;6.17;;;2.00;;
5650;SDS011;40241;52.684;9.758;2024-02-04T05:08:32;4.70;;;1.90;;
5650;SDS011;40241;52.684;9.758;2024-02-04T05:10:58;6.60;;;1.93;;
5650;SDS011;40241;52.684;9.758;2024-02-04T05:13:23;2.37;;;1.80;;
5650;SDS011;40241;52.684;9.758;2024-02-04T05:15:48;4.03;;;2.00;;
5650;SDS011;40241;52.684;9.758;2024-02-04T05:18:14;6.97;;;2.10;;
5650;SDS011;40241;52.684;9.758;2024-02-04T05:20:39;3.90;;;1.87;;
5650;SDS011;40241;52.684;9.758;2024-02-04T05:23:04;2.83;;;1.47;;
5650;SDS011;40241;52.684;9.758;2024-02-04T05:25:29;4.03;;;1.60;;
5650;SDS011;40241;52.684;9.758;2024-02-04T05:27:55;3.37;;;1.40;;
5650;SDS011;40241;52.684;9.758;2024-02-04T05:30:21;4.93;;;1.87;;
5650;SDS011;40241;52.684;9.758;2024-02-04T05:32:46;13.37;;;2.10;;
5650;SDS011;40241;52.684;9.758;2024-02-04T05:35:11;4.20;;;1.47;;
5650;SDS011;40241;52.684;9.758;2024-02-04T05:37:37;4.30;;;1.67;;
5650;SDS011;40241;52.684;9.758;2024-02-04T05:40:02;3.00;;;1.77;;
5650;SDS011;40241;52.684;9.758;2024-02-04T05:42:29;6.33;;;1.73;;
5650;SDS011;40241;52.684;9.758;2024-02-04T05:44:56;5.00;;;1.57;;
5650;SDS011;40241;52.684;9.758;2024-02-04T05:47:21;3.63;;;1.70;;
5650;SDS011;40241;52.684;9.758;2024-02-04T05:49:47;1.73;;;0.90;;
5650;SDS011;40241;52.684;9.758;2024-02-04T05:52:12;3.40;;;1.53;;
5650;SDS011;40241;52.684;9.758;2024-02-04T05:54:38;4.77;;;1.50;;
5650;SDS011;40241;52.684;9.758;2024-02-04T05:57:06;2.50;;;1.17;;
5650;SDS011;40241;52.684;9.758;2024-02-04T05:59:34;5.97;;;1.73;;
5650;SDS011;40241;52.684;9.758;2024-02-04T06:01:59;11.83;;;1.53;;
5650;SDS011;40241;52.684;9.758;2024-02-04T06:04:25;7.07;;;1.90;;
5650;SDS011;40241;52.684;9.758;2024-02-04T06:06:50;6.33;;;1.10;;
5650;SDS011;40241;52.684;9.758;2024-02-04T06:09:15;6.50;;;1.40;;
5650;SDS011;40241;52.684;9.758;2024-02-04T06:11:44;5.43;;;1.30;;
5650;SDS011;40241;52.684;9.758;2024-02-04T06:14:10;5.27;;;1.40;;
5650;SDS011;40241;52.684;9.758;2024-02-04T06:16:35;4.20;;;1.63;;
5650;SDS011;40241;52.684;9.758;2024-02-04T06:19:00;3.77;;;1.30;;
5650;SDS011;40241;52.684;9.758;2024-02-04T06:21:25;8.00;;;1.73;;
5650;SDS011;40241;52.684;9.758;2024-02-04T06:23:51;4.33;;;1.63;;
5650;SDS011;40241;52.684;9.758;2024-02-04T06:26:16;4.47;;;1.73;;
5650;SDS011;40241;52.684;9.758;2024-02-04T06:28:41;7.87;;;1.60;;
5650;SDS011;40241;52.684;9.758;2024-02-04T06:31:11;5.60;;;1.70;;
5650;SDS011;40241;52.684;9.758;2024-02-04T06:33:36;4.77;;;1.87;;
5650;SDS011;40241;52.684;9.758;2024-02-04T06:36:01;4.07;;;1.57;;
5650;SDS011;40241;52.684;9.758;2024-02-04T06:38:27;11.73;;;1.90;;
5650;SDS011;40241;52.684;9.758;2024-02-04T06:40:52;11.10;;;1.77;;
5650;SDS011;40241;52.684;9.758;2024-02-04T06:43:17;3.97;;;1.63;;
5650;SDS011;40241;52.684;9.758;2024-02-04T06:45:43;4.93;;;1.47;;
5650;SDS011;40241;52.684;9.758;2024-02-04T06:48:08;4.40;;;1.67;;
5650;SDS011;40241;52.684;9.758;2024-02-04T06:50:34;2.67;;;1.40;;
5650;SDS011;40241;52.684;9.758;2024-02-04T06:53:00;4.47;;;1.60;;
5650;SDS011;40241;52.684;9.758;2024-02-04T06:55:25;2.80;;;1.63;;
5650;SDS011;40241;52.684;9.758;2024-02-04T06:57:51;3.20;;;1.60;;
5650;SDS011;40241;52.684;9.758;2024-02-04T07:00:16;3.53;;;1.60;;
5650;SDS011;40241;52.684;9.758;2024-02-04T07:02:42;4.67;;;1.60;;
5650;SDS011;40241;52.684;9.758;2024-02-04T07:05:07;8.77;;;2.10;;
5650;SDS011;40241;52.684;9.758;2024-02-04T07:07:32;3.63;;;2.10;;
5650;SDS011;40241;52.684;9.758;2024-02-04T07:09:58;3.00;;;2.10;;
5650;SDS011;40241;52.684;9.758;2024-02-04T07:12:24;4.37;;;1.93;;
5650;SDS011;40241;52.684;9.758;2024-02-04T07:14:49;7.30;;;2.87;;
5650;SDS011;40241;52.684;9.758;2024-02-04T07:17:15;3.33;;;2.37;;
5650;SDS011;40241;52.684;9.758;2024-02-04T07:19:40;7.60;;;3.10;;
5650;SDS011;40241;52.684;9.758;2024-02-04T07:22:05;6.73;;;2.80;;
5650;SDS011;40241;52.684;9.758;2024-02-04T07:24:31;5.80;;;2.83;;
5650;SDS011;40241;52.684;9.758;2024-02-04T07:26:57;5.00;;;2.70;;
5650;SDS011;40241;52.684;9.758;2024-02-04T07:29:22;4.10;;;2.17;;
5650;SDS011;40241;52.684;9.758;2024-02-04T07:31:47;5.17;;;2.50;;
5650;SDS011;40241;52.684;9.758;2024-02-04T07:34:12;7.93;;;2.07;;
5650;SDS011;40241;52.684;9.758;2024-02-04T07:36:38;6.97;;;2.30;;
5650;SDS011;40241;52.684;9.758;2024-02-04T07:39:03;4.93;;;2.20;;
5650;SDS011;40241;52.684;9.758;2024-02-04T07:41:30;6.30;;;2.27;;
5650;SDS011;40241;52.684;9.758;2024-02-04T07:43:56;3.17;;;2.17;;
5650;SDS011;40241;52.684;9.758;2024-02-04T07:46:21;4.73;;;1.70;;
5650;SDS011;40241;52.684;9.758;2024-02-04T07:48:47;8.57;;;2.27;;
5650;SDS011;40241;52.684;9.758;2024-02-04T07:51:12;2.40;;;1.30;;
5650;SDS011;40241;52.684;9.758;2024-02-04T07:53:37;6.93;;;1.90;;
5650;SDS011;40241;52.684;9.758;2024-02-04T07:56:03;8.37;;;1.60;;
5650;SDS011;40241;52.684;9.758;2024-02-04T07:58:31;2.40;;;0.70;;
5650;SDS011;40241;52.684;9.758;2024-02-04T08:00:57;4.93;;;1.40;;
5650;SDS011;40241;52.684;9.758;2024-02-04T08:03:22;6.00;;;1.20;;
5650;SDS011;40241;52.684;9.758;2024-02-04T08:05:47;4.83;;;1.50;;
5650;SDS011;40241;52.684;9.758;2024-02-04T08:08:13;4.47;;;1.50;;
5650;SDS011;40241;52.684;9.758;2024-02-04T08:10:38;2.40;;;0.97;;
5650;SDS011;40241;52.684;9.758;2024-02-04T08:13:03;3.43;;;1.33;;
5650;SDS011;40241;52.684;9.758;2024-02-04T08:15:29;3.73;;;1.00;;
5650;SDS011;40241;52.684;9.758;2024-02-04T08:17:54;6.33;;;1.10;;
5650;SDS011;40241;52.684;9.758;2024-02-04T08:20:19;3.63;;;1.57;;
5650;SDS011;40241;52.684;9.758;2024-02-04T08:22:46;3.77;;;1.40;;
5650;SDS011;40241;52.684;9.758;2024-02-04T08:25:11;3.03;;;1.20;;
5650;SDS011;40241;52.684;9.758;2024-02-04T08:27:37;3.80;;;1.30;;
5650;SDS011;40241;52.684;9.758;2024-02-04T08:30:03;2.87;;;0.80;;
5650;SDS011;40241;52.684;9.758;2024-02-04T08:32:29;2.80;;;0.90;;
5650;SDS011;40241;52.684;9.758;2024-02-04T08:34:55;2.60;;;0.87;;
5650;SDS011;40241;52.684;9.758;2024-02-04T08:37:21;3.27;;;1.40;;
5650;SDS011;40241;52.684;9.758;2024-02-04T08:39:46;3.13;;;1.20;;
5650;SDS011;40241;52.684;9.758;2024-02-04T08:42:11;5.60;;;1.30;;
5650;SDS011;40241;52.684;9.758;2024-02-04T08:44:37;6.00;;;1.50;;
5650;SDS011;40241;52.684;9.758;2024-02-04T08:47:02;2.80;;;1.17;;
5650;SDS011;40241;52.684;9.758;2024-02-04T08:49:28;4.87;;;1.63;;
5650;SDS011;40241;52.684;9.758;2024-02-04T08:51:54;1.20;;;1.00;;
5650;SDS011;40241;52.684;9.758;2024-02-04T08:54:20;4.20;;;1.10;;
5650;SDS011;40241;52.684;9.758;2024-02-04T08:56:45;4.87;;;1.37;;
5650;SDS011;40241;52.684;9.758;2024-02-04T08:59:10;2.07;;;1.07;;
5650;SDS011;40241;52.684;9.758;2024-02-04T09:01:36;1.57;;;1.00;;
5650;SDS011;40241;52.684;9.758;2024-02-04T09:04:01;2.80;;;1.10;;
5650;SDS011;40241;52.684;9.758;2024-02-04T09:06:26;6.90;;;1.17;;
5650;SDS011;40241;52.684;9.758;2024-02-04T09:08:52;5.63;;;1.83;;
5650;SDS011;40241;52.684;9.758;2024-02-04T09:11:17;6.93;;;1.30;;
5650;SDS011;40241;52.684;9.758;2024-02-04T09:13:45;7.03;;;1.60;;
5650;SDS011;40241;52.684;9.758;2024-02-04T09:16:11;6.83;;;1.60;;
5650;SDS011;40241;52.684;9.758;2024-02-04T09:18:36;2.30;;;1.10;;
5650;SDS011;40241;52.684;9.758;2024-02-04T09:21:02;3.93;;;1.43;;
5650;SDS011;40241;52.684;9.758;2024-02-04T09:23:28;11.37;;;1.20;;
5650;SDS011;40241;52.684;9.758;2024-02-04T09:25:53;3.97;;;1.30;;
5650;SDS011;40241;52.684;9.758;2024-02-04T09:28:18;2.77;;;1.20;;
5650;SDS011;40241;52.684;9.758;2024-02-04T09:30:44;5.47;;;1.30;;
5650;SDS011;40241;52.684;9.758;2024-02-04T09:33:09;2.10;;;0.90;;
5650;SDS011;40241;52.684;9.758;2024-02-04T09:35:34;3.83;;;1.10;;
5650;SDS011;40241;52.684;9.758;2024-02-04T09:38:00;2.83;;;1.10;;
5650;SDS011;40241;52.684;9.758;2024-02-04T09:40:25;2.10;;;1.00;;
5650;SDS011;40241;52.684;9.758;2024-02-04T09:42:50;6.83;;;1.57;;
5650;SDS011;40241;52.684;9.758;2024-02-04T09:45:17;11.97;;;1.47;;
5650;SDS011;40241;52.684;9.758;2024-02-04T09:47:42;2.23;;;1.20;;
5650;SDS011;40241;52.684;9.758;2024-02-04T09:50:10;4.77;;;1.20;;
5650;SDS011;40241;52.684;9.758;2024-02-04T09:52:36;6.00;;;1.70;;
5650;SDS011;40241;52.684;9.758;2024-02-04T09:55:04;3.60;;;1.23;;
5650;SDS011;40241;52.684;9.758;2024-02-04T09:57:33;4.33;;;1.50;;
5650;SDS011;40241;52.684;9.758;2024-02-04T09:59:59;3.10;;;1.40;;
5650;SDS011;40241;52.684;9.758;2024-02-04T10:02:29;4.70;;;1.50;;
5650;SDS011;40241;52.684;9.758;2024-02-04T10:04:57;5.60;;;1.70;;
5650;SDS011;40241;52.684;9.758;2024-02-04T10:07:22;9.43;;;2.20;;
5650;SDS011;40241;52.684;9.758;2024-02-04T10:09:49;6.43;;;1.50;;
5650;SDS011;40241;52.684;9.758;2024-02-04T10:12:15;2.77;;;1.20;;
5650;SDS011;40241;52.684;9.758;2024-02-04T10:14:40;2.00;;;1.00;;
5650;SDS011;40241;52.684;9.758;2024-02-04T10:17:05;8.83;;;2.10;;
5650;SDS011;40241;52.684;9.758;2024-02-04T10:19:31;4.27;;;2.63;;
5650;SDS011;40241;52.684;9.758;2024-02-04T10:21:57;4.80;;;2.47;;
5650;SDS011;40241;52.684;9.758;2024-02-04T10:24:24;4.00;;;1.50;;
5650;SDS011;40241;52.684;9.758;2024-02-04T10:26:49;4.93;;;1.23;;
5650;SDS011;40241;52.684;9.758;2024-02-04T10:29:15;5.20;;;1.70;;
5650;SDS011;40241;52.684;9.758;2024-02-04T10:31:40;4.20;;;1.10;;
5650;SDS011;40241;52.684;9.758;2024-02-04T10:34:06;8.17;;;1.60;;
5650;SDS011;40241;52.684;9.758;2024-02-04T10:36:33;3.60;;;1.00;;
5650;SDS011;40241;52.684;9.758;2024-02-04T10:38:58;4.20;;;1.37;;
5650;SDS011;40241;52.684;9.758;2024-02-04T10:41:23;3.53;;;1.30;;
5650;SDS011;40241;52.684;9.758;2024-02-04T10:43:51;5.47;;;1.63;;
5650;SDS011;40241;52.684;9.758;2024-02-04T10:46:19;5.83;;;1.30;;
5650;SDS011;40241;52.684;9.758;2024-02-04T10:48:55;2.60;;;1.00;;
5650;SDS011;40241;52.684;9.758;2024-02-04T10:51:25;4.40;;;2.03;;
5650;SDS011;40241;52.684;9.758;2024-02-04T10:53:53;6.27;;;1.43;;
5650;SDS011;40241;52.684;9.758;2024-02-04T10:56:22;3.73;;;1.10;;
5650;SDS011;40241;52.684;9.758;2024-02-04T10:58:57;7.00;;;1.10;;
5650;SDS011;40241;52.684;9.758;2024-02-04T11:01:25;2.63;;;1.40;;
5650;SDS011;40241;52.684;9.758;2024-02-04T11:03:51;8.07;;;1.70;;
5650;SDS011;40241;52.684;9.758;2024-02-04T11:06:18;5.50;;;1.67;;
5650;SDS011;40241;52.684;9.758;2024-02-04T11:08:48;3.57;;;1.20;;
5650;SDS011;40241;52.684;9.758;2024-02-04T11:11:15;9.27;;;1.93;;
5650;SDS011;40241;52.684;9.758;2024-02-04T11:13:42;5.90;;;1.50;;
5650;SDS011;40241;52.684;9.758;2024-02-04T11:16:15;4.03;;;1.67;;
5650;SDS011;40241;52.684;9.758;2024-02-04T11:19:11;8.80;;;1.70;;
5650;SDS011;40241;52.684;9.758;2024-02-04T11:27:43;2.50;;;1.47;;
5650;SDS011;40241;52.684;9.758;2024-02-04T11:30:09;6.30;;;1.30;;
5650;SDS011;40241;52.684;9.758;2024-02-04T11:32:35;5.70;;;1.30;;
5650;SDS011;40241;52.684;9.758;2024-02-04T11:35:01;4.20;;;1.03;;
5650;SDS011;40241;52.684;9.758;2024-02-04T11:37:27;5.90;;;1.30;;
5650;SDS011;40241;52.684;9.758;2024-02-04T11:39:53;4.83;;;1.50;;
5650;SDS011;40241;52.684;9.758;2024-02-04T11:42:23;2.63;;;1.20;;
5650;SDS011;40241;52.684;9.758;2024-02-04T11:44:49;5.10;;;1.30;;
5650;SDS011;40241;52.684;9.758;2024-02-04T11:47:24;7.30;;;2.30;;
5650;SDS011;40241;52.684;9.758;2024-02-04T11:49:57;1.87;;;1.40;;
5650;SDS011;40241;52.684;9.758;2024-02-04T11:52:23;2.97;;;1.37;;
5650;SDS011;40241;52.684;9.758;2024-02-04T11:54:52;5.97;;;1.50;;
5650;SDS011;40241;52.684;9.758;2024-02-04T11:57:17;4.00;;;1.70;;
5650;SDS011;40241;52.684;9.758;2024-02-04T11:59:43;3.70;;;1.33;;
5650;SDS011;40241;52.684;9.758;2024-02-04T12:02:09;5.90;;;1.30;;
5650;SDS011;40241;52.684;9.758;2024-02-04T12:04:36;5.20;;;2.00;;
5650;SDS011;40241;52.684;9.758;2024-02-04T12:07:04;5.87;;;1.47;;
5650;SDS011;40241;52.684;9.758;2024-02-04T12:09:30;4.50;;;1.20;;
5650;SDS011;40241;52.684;9.758;2024-02-04T12:11:56;6.13;;;1.70;;
5650;SDS011;40241;52.684;9.758;2024-02-04T12:14:22;3.87;;;1.70;;
5650;SDS011;40241;52.684;9.758;2024-02-04T12:16:48;3.10;;;1.47;;
5650;SDS011;40241;52.684;9.758;2024-02-04T12:19:13;5.47;;;1.40;;
5650;SDS011;40241;52.684;9.758;2024-02-04T12:21:39;3.93;;;1.50;;
5650;SDS011;40241;52.684;9.758;2024-02-04T12:24:04;5.27;;;1.67;;
5650;SDS011;40241;52.684;9.758;2024-02-04T12:26:30;3.10;;;1.90;;
5650;SDS011;40241;52.684;9.758;2024-02-04T12:28:55;2.47;;;1.03;;
5650;SDS011;40241;52.684;9.758;2024-02-04T12:31:24;3.00;;;1.37;;
5650;SDS011;40241;52.684;9.758;2024-02-04T12:34:00;1.80;;;1.43;;
5650;SDS011;40241;52.684;9.758;2024-02-04T12:36:26;3.40;;;1.30;;
5650;SDS011;40241;52.684;9.758;2024-02-04T12:38:53;1.90;;;1.10;;
5650;SDS011;40241;52.684;9.758;2024-02-04T12:41:20;6.10;;;1.60;;
5650;SDS011;40241;52.684;9.758;2024-02-04T12:43:49;4.23;;;1.63;;
5650;SDS011;40241;52.684;9.758;2024-02-04T12:46:18;4.30;;;1.50;;
5650;SDS011;40241;52.684;9.758;2024-02-04T12:48:44;1.83;;;1.03;;
5650;SDS011;40241;52.684;9.758;2024-02-04T12:51:09;2.63;;;1.23;;
5650;SDS011;40241;52.684;9.758;2024-02-04T12:53:36;4.13;;;1.60;;
5650;SDS011;40241;52.684;9.758;2024-02-04T12:56:02;5.60;;;1.43;;
5650;SDS011;40241;52.684;9.758;2024-02-04T12:58:27;4.57;;;1.40;;
5650;SDS011;40241;52.684;9.758;2024-02-04T13:01:01;1.90;;;1.30;;
5650;SDS011;40241;52.684;9.758;2024-02-04T13:03:28;4.10;;;1.50;;
5650;SDS011;40241;52.684;9.758;2024-02-04T13:05:59;3.40;;;1.33;;
5650;SDS011;40241;52.684;9.758;2024-02-04T13:08:26;2.37;;;1.53;;
5650;SDS011;40241;52.684;9.758;2024-02-04T13:10:54;4.00;;;1.07;;
5650;SDS011;40241;52.684;9.758;2024-02-04T13:13:23;3.07;;;1.30;;
5650;SDS011;40241;52.684;9.758;2024-02-04T13:15:53;4.83;;;1.27;;
5650;SDS011;40241;52.684;9.758;2024-02-04T13:18:19;1.50;;;1.20;;
5650;SDS011;40241;52.684;9.758;2024-02-04T13:20:44;2.07;;;1.47;;
5650;SDS011;40241;52.684;9.758;2024-02-04T13:23:10;1.60;;;1.33;;
5650;SDS011;40241;52.684;9.758;2024-02-04T13:25:36;4.23;;;1.90;;
5650;SDS011;40241;52.684;9.758;2024-02-04T13:28:02;2.50;;;1.47;;
5650;SDS011;40241;52.684;9.758;2024-02-04T13:30:28;5.60;;;1.83;;
5650;SDS011;40241;52.684;9.758;2024-02-04T13:32:53;4.00;;;1.67;;
5650;SDS011;40241;52.684;9.758;2024-02-04T13:35:19;5.10;;;1.27;;
5650;SDS011;40241;52.684;9.758;2024-02-04T13:37:45;3.97;;;1.53;;
5650;SDS011;40241;52.684;9.758;2024-02-04T13:40:15;2.00;;;1.00;;
5650;SDS011;40241;52.684;9.758;2024-02-04T13:42:41;3.33;;;1.07;;
5650;SDS011;40241;52.684;9.758;2024-02-04T13:45:07;1.47;;;0.90;;
5650;SDS011;40241;52.684;9.758;2024-02-04T13:47:33;6.20;;;1.47;;
5650;SDS011;40241;52.684;9.758;2024-02-04T13:49:59;2.87;;;0.80;;
5650;SDS011;40241;52.684;9.758;2024-02-04T13:52:25;3.30;;;0.77;;
5650;SDS011;40241;52.684;9.758;2024-02-04T13:54:50;2.03;;;1.00;;
5650;SDS011;40241;52.684;9.758;2024-02-04T13:57:16;3.00;;;1.20;;
5650;SDS011;40241;52.684;9.758;2024-02-04T13:59:41;4.27;;;1.47;;
5650;SDS011;40241;52.684;9.758;2024-02-04T14:02:07;2.23;;;1.13;;
5650;SDS011;40241;52.684;9.758;2024-02-04T14:04:36;1.33;;;1.20;;
5650;SDS011;40241;52.684;9.758;2024-02-04T14:07:02;2.50;;;1.40;;
5650;SDS011;40241;52.684;9.758;2024-02-04T14:09:27;1.87;;;0.93;;
5650;SDS011;40241;52.684;9.758;2024-02-04T14:11:53;6.73;;;1.20;;
5650;SDS011;40241;52.684;9.758;2024-02-04T14:14:22;3.17;;;1.30;;
5650;SDS011;40241;52.684;9.758;2024-02-04T14:16:48;2.17;;;1.00;;
5650;SDS011;40241;52.684;9.758;2024-02-04T14:19:14;1.47;;;0.90;;
5650;SDS011;40241;52.684;9.758;2024-02-04T14:21:42;1.33;;;0.90;;
5650;SDS011;40241;52.684;9.758;2024-02-04T14:24:08;2.10;;;1.00;;
5650;SDS011;40241;52.684;9.758;2024-02-04T14:26:34;1.37;;;0.70;;
5650;SDS011;40241;52.684;9.758;2024-02-04T14:28:59;1.97;;;1.10;;
5650;SDS011;40241;52.684;9.758;2024-02-04T14:31:25;3.27;;;0.80;;
5650;SDS011;40241;52.684;9.758;2024-02-04T14:33:50;1.60;;;0.80;;
5650;SDS011;40241;52.684;9.758;2024-02-04T14:36:16;1.13;;;0.80;;
5650;SDS011;40241;52.684;9.758;2024-02-04T14:38:41;2.60;;;1.07;;
5650;SDS011;40241;52.684;9.758;2024-02-04T14:41:07;4.00;;;1.10;;
5650;SDS011;40241;52.684;9.758;2024-02-04T14:43:32;3.53;;;2.03;;
5650;SDS011;40241;52.684;9.758;2024-02-04T14:45:58;6.10;;;2.10;;
5650;SDS011;40241;52.684;9.758;2024-02-04T14:48:24;2.77;;;1.87;;
5650;SDS011;40241;52.684;9.758;2024-02-04T14:50:49;4.93;;;1.50;;
5650;SDS011;40241;52.684;9.758;2024-02-04T14:53:15;2.00;;;1.10;;
5650;SDS011;40241;52.684;9.758;2024-02-04T14:55:40;1.73;;;1.00;;
5650;SDS011;40241;52.684;9.758;2024-02-04T14:58:05;1.30;;;1.10;;
5650;SDS011;40241;52.684;9.758;2024-02-04T15:00:31;2.43;;;1.33;;
5650;SDS011;40241;52.684;9.758;2024-02-04T15:02:57;2.27;;;1.37;;